»·PEaware :: N2AA KRNO-KPVF

N2AA :: KRNO-KPVF

FLIGHT INFORMATION

Flight Status: Arrived
Operator: Privately registered:
United States
More flights under this callsign
Pilot: Dan A. (12711)
Aircraft: BEECH AIRCRAFT BEECH AIRLINER
(B190)
More flights by this aircraft type
Origin: KRNO Reno/Tahoe Intl
United States
Destination: KPVF Placerville
United States
More flights between these airports :: More routes between these airports
Route: +FMG8 FMG SWR HNW
File this flight plan on PilotEdge
Remarks:
Altitude:
(Current/Filed)
14,000ft
Speed:
(Current/Filed)
190kts
Departed: 27-Apr-18 12:27 PM
Arrived: 27-Apr-18 12:55 PM
Distance/Time
Traveled:
66nm/0:28
Distance/Time
To Go:
Arrived

Flight Plot

Page will automatically refresh every two minutes.

Flight plan parsing failed; only flown route is shown


Map Options




Map Legend


Flown Route
Filed Route
Departure Airport
Arrival Airport
Navaid (VOR, NDB)
Fix

Horizontal Profiles

Position Reports

Time Latitude Longitude Heading Altitude Ground
Speed
27-Apr-18 11:53 39.500485 -119.773684 88 4420ft 0kts
27-Apr-18 11:54 39.500485 -119.773684 88 4420ft 0kts
27-Apr-18 11:55 39.500485 -119.773682 88 4420ft 0kts
27-Apr-18 11:56 39.500485 -119.773680 88 4420ft 0kts
27-Apr-18 11:57 39.500485 -119.773679 88 4420ft 0kts
27-Apr-18 11:58 39.500486 -119.773678 88 4420ft 0kts
27-Apr-18 11:59 39.500486 -119.773677 88 4420ft 0kts
27-Apr-18 12:00 39.500486 -119.773676 88 4420ft 0kts
27-Apr-18 12:01 39.500486 -119.773675 88 4420ft 0kts
27-Apr-18 12:02 39.500486 -119.773674 88 4420ft 0kts
27-Apr-18 12:03 39.500486 -119.773673 88 4420ft 0kts
27-Apr-18 12:04 39.500486 -119.773672 88 4420ft 0kts
27-Apr-18 12:05 39.500486 -119.773671 88 4420ft 0kts
27-Apr-18 12:06 39.500486 -119.773670 88 4420ft 0kts
27-Apr-18 12:07 39.500486 -119.773669 88 4420ft 0kts
27-Apr-18 12:08 39.500486 -119.773668 88 4420ft 0kts
27-Apr-18 12:09 39.500486 -119.773667 88 4420ft 0kts
27-Apr-18 12:10 39.500486 -119.773667 88 4420ft 0kts
27-Apr-18 12:11 39.500486 -119.773666 88 4420ft 0kts
27-Apr-18 12:12 39.500486 -119.773665 88 4420ft 0kts
27-Apr-18 12:13 39.500486 -119.773664 88 4420ft 0kts
27-Apr-18 12:14 39.500486 -119.773663 88 4420ft 0kts
27-Apr-18 12:15 39.500486 -119.773662 88 4420ft 0kts
27-Apr-18 12:16 39.500459 -119.773244 99 4419ft 2kts
27-Apr-18 12:17 39.501106 -119.771686 2 4419ft 3kts
27-Apr-18 12:18 39.503875 -119.771588 2 4419ft 14kts
27-Apr-18 12:19 39.507026 -119.771560 357 4419ft 8kts
27-Apr-18 12:20 39.508650 -119.771613 1 4419ft 4kts
27-Apr-18 12:21 39.509701 -119.771596 358 4419ft 1kts
27-Apr-18 12:22 39.510531 -119.771615 1 4419ft 6kts
27-Apr-18 12:23 39.512832 -119.771540 359 4419ft 8kts
27-Apr-18 12:24 39.513632 -119.771179 87 4419ft 0kts
27-Apr-18 12:25 39.513440 -119.769577 137 4419ft 7kts
27-Apr-18 12:26 39.496731 -119.771953 205 4942ft 106kts
27-Apr-18 12:27 39.463790 -119.755042 141 6778ft 177kts
27-Apr-18 12:28 39.421158 -119.729010 191 8165ft 196kts
27-Apr-18 12:29 39.363971 -119.735511 223 9586ft 203kts
27-Apr-18 12:30 39.317674 -119.786289 232 10021ft 238kts
27-Apr-18 12:31 39.283965 -119.854562 240 11090ft 213kts
27-Apr-18 12:32 39.273991 -119.927423 239 12736ft 189kts
27-Apr-18 12:33 39.239102 -119.969775 209 14041ft 185kts
27-Apr-18 12:34 39.227805 -120.047657 258 14098ft 250kts
27-Apr-18 12:35 39.226403 -120.139600 259 14040ft 259kts
27-Apr-18 12:36 39.215337 -120.220191 248 15566ft 192kts
27-Apr-18 12:37 39.199547 -120.290246 242 15187ft 212kts
27-Apr-18 12:38 39.178909 -120.363098 236 14489ft 229kts
27-Apr-18 12:39 39.131739 -120.406464 200 13995ft 190kts
27-Apr-18 12:40 39.085322 -120.421714 201 13996ft 156kts
27-Apr-18 12:41 39.034358 -120.435617 207 12073ft 204kts
27-Apr-18 12:42 38.997141 -120.457703 212 11187ft 192kts
27-Apr-18 12:43 38.953875 -120.485288 221 10717ft 158kts
27-Apr-18 12:44 38.925149 -120.526984 245 10415ft 160kts
27-Apr-18 12:45 38.919982 -120.585708 273 10412ft 178kts
27-Apr-18 12:46 38.901092 -120.617802 193 9124ft 153kts
27-Apr-18 12:47 38.856880 -120.618644 184 6029ft 191kts
27-Apr-18 12:48 38.815107 -120.623146 201 5386ft 111kts
27-Apr-18 12:49 38.786668 -120.628659 197 5126ft 96kts
27-Apr-18 12:50 38.757502 -120.644882 207 5307ft 131kts
27-Apr-18 12:51 38.719054 -120.659878 202 5182ft 149kts
27-Apr-18 12:52 38.699377 -120.693696 254 3956ft 100kts
27-Apr-18 12:53 38.696237 -120.727555 271 2631ft 87kts
27-Apr-18 12:54 38.696266 -120.733243 239 2604ft 9kts
27-Apr-18 12:55 38.696156 -120.733471 239 2604ft 0kts
27-Apr-18 12:56 38.696156 -120.733471 239 2604ft 0kts
27-Apr-18 12:57 38.696156 -120.733471 239 2604ft 0kts
27-Apr-18 12:58 38.696156 -120.733471 239 2604ft 0kts
27-Apr-18 12:59 38.696156 -120.733471 239 2604ft 0kts
27-Apr-18 13:00 38.696156 -120.733471 239 2604ft 0kts
27-Apr-18 13:01 38.696156 -120.733471 239 2604ft 0kts
27-Apr-18 13:02 38.696156 -120.733471 239 2604ft 0kts
27-Apr-18 13:03 38.696156 -120.733471 239 2604ft 0kts
27-Apr-18 13:04 38.696156 -120.733471 239 2604ft 0kts
27-Apr-18 13:05 38.696156 -120.733471 239 2604ft 0kts
27-Apr-18 13:06 38.696156 -120.733471 239 2604ft 0kts
27-Apr-18 13:07 38.696156 -120.733471 239 2604ft 0kts
27-Apr-18 13:08 38.696156 -120.733471 239 2604ft 0kts

Navigation Log

Ident Type
Flight plan parsing failed, navigation log unavailable